CheckWX is a tool to help pilots better visualize weather data.  It is not intended as a substitute for an official pre-flight weather briefing.

06:33:29 UTC

CYWE METAR
Wekweeti
Wekweeti, Canada
Current

33 mins ago

CYWE 230600Z AUTO 06011G16KT 9SM CLR M07/M09 A2957 RMK SLP043
Observed
Apr-23 @ 06:00 UTC
Wind
  • 060° at 11 KTS
  • Gusting to 16 KTS
Visibility
9 SM
Flight Rules
VFR
Cloud Levels
  • Clear skies
Temperature
-7°C / 19°F
Dewpoint
-9°C / 16°F
Humidity
86%
Altimeter
29.57" Hg
Pressure
1001.32 hPa
Previous

2 hours ago

CYWE 230500Z AUTO 06012G17KT 9SM CLR M07/M08 A2957 RMK SLP046
Observed
Apr-23 @ 05:00 UTC
Wind
  • 060° at 12 KTS
  • Gusting to 17 KTS
Visibility
9 SM
Flight Rules
VFR
Cloud Levels
  • Clear skies
Temperature
-7°C / 19°F
Dewpoint
-8°C / 18°F
Humidity
93%
Altimeter
29.57" Hg
Pressure
1001.32 hPa
Previous

3 hours ago

CYWE 230400Z AUTO 06011G16KT 9SM CLR M05/M07 A2959 RMK SLP052
Observed
Apr-23 @ 04:00 UTC
Wind
  • 060° at 11 KTS
  • Gusting to 16 KTS
Visibility
9 SM
Flight Rules
VFR
Cloud Levels
  • Clear skies
Temperature
-5°C / 23°F
Dewpoint
-7°C / 19°F
Humidity
86%
Altimeter
29.59" Hg
Pressure
1002.02 hPa